sensor_id;sensor_type;location;lat;lon;timestamp;temperature;humidity
63283;DHT22;49407;51.388;0.048;2022-12-07T00:01:33;5.50;99.90
63283;DHT22;49407;51.388;0.048;2022-12-07T00:04:02;5.50;99.90
63283;DHT22;49407;51.388;0.048;2022-12-07T00:06:37;5.40;99.90
63283;DHT22;49407;51.388;0.048;2022-12-07T00:09:07;5.40;99.90
63283;DHT22;49407;51.388;0.048;2022-12-07T00:11:36;5.40;99.90
63283;DHT22;49407;51.388;0.048;2022-12-07T00:14:06;5.30;99.90
63283;DHT22;49407;51.388;0.048;2022-12-07T00:16:34;5.40;99.90
63283;DHT22;49407;51.388;0.048;2022-12-07T00:19:02;5.40;99.90
63283;DHT22;49407;51.388;0.048;2022-12-07T00:21:34;5.30;99.90
63283;DHT22;49407;51.388;0.048;2022-12-07T00:24:03;5.40;99.90
63283;DHT22;49407;51.388;0.048;2022-12-07T00:26:38;5.40;99.90
63283;DHT22;49407;51.388;0.048;2022-12-07T00:29:11;5.40;99.90
63283;DHT22;49407;51.388;0.048;2022-12-07T00:31:39;5.30;99.90
63283;DHT22;49407;51.388;0.048;2022-12-07T00:34:07;5.30;99.90
63283;DHT22;49407;51.388;0.048;2022-12-07T00:36:38;5.30;99.90
63283;DHT22;49407;51.388;0.048;2022-12-07T00:39:05;5.30;99.90
63283;DHT22;49407;51.388;0.048;2022-12-07T00:41:32;5.30;99.90
63283;DHT22;49407;51.388;0.048;2022-12-07T00:43:59;5.30;99.90
63283;DHT22;49407;51.388;0.048;2022-12-07T00:46:26;5.30;99.90
63283;DHT22;49407;51.388;0.048;2022-12-07T00:48:55;5.30;99.90
63283;DHT22;49407;51.388;0.048;2022-12-07T00:51:24;5.30;99.90
63283;DHT22;49407;51.388;0.048;2022-12-07T00:53:52;5.30;99.90
63283;DHT22;49407;51.388;0.048;2022-12-07T00:56:22;5.20;99.90
63283;DHT22;49407;51.388;0.048;2022-12-07T00:58:54;5.20;99.90
63283;DHT22;49407;51.388;0.048;2022-12-07T01:01:23;5.20;99.90
63283;DHT22;49407;51.388;0.048;2022-12-07T01:03:50;5.10;99.90
63283;DHT22;49407;51.388;0.048;2022-12-07T01:06:19;5.10;99.90
63283;DHT22;49407;51.388;0.048;2022-12-07T01:09:12;5.10;99.90
63283;DHT22;49407;51.388;0.048;2022-12-07T01:11:39;5.10;99.90
63283;DHT22;49407;51.388;0.048;2022-12-07T01:14:06;5.00;99.90
63283;DHT22;49407;51.388;0.048;2022-12-07T01:16:33;5.00;99.90
63283;DHT22;49407;51.388;0.048;2022-12-07T01:19:01;5.00;99.90
63283;DHT22;49407;51.388;0.048;2022-12-07T01:21:33;5.10;99.90
63283;DHT22;49407;51.388;0.048;2022-12-07T01:24:06;5.00;99.90
63283;DHT22;49407;51.388;0.048;2022-12-07T01:26:34;5.00;99.90
63283;DHT22;49407;51.388;0.048;2022-12-07T01:29:01;5.00;99.90
63283;DHT22;49407;51.388;0.048;2022-12-07T01:31:28;5.00;99.90
63283;DHT22;49407;51.388;0.048;2022-12-07T01:33:57;4.90;99.90
63283;DHT22;49407;51.388;0.048;2022-12-07T01:36:25;4.90;99.90
63283;DHT22;49407;51.388;0.048;2022-12-07T01:38:58;4.90;99.90
63283;DHT22;49407;51.388;0.048;2022-12-07T01:41:29;5.00;99.90
63283;DHT22;49407;51.388;0.048;2022-12-07T01:44:16;4.90;99.90
63283;DHT22;49407;51.388;0.048;2022-12-07T01:46:55;4.80;99.90
63283;DHT22;49407;51.388;0.048;2022-12-07T01:52:30;4.70;99.90
63283;DHT22;49407;51.388;0.048;2022-12-07T01:55:03;4.60;99.90
63283;DHT22;49407;51.388;0.048;2022-12-07T01:57:32;4.60;99.90
63283;DHT22;49407;51.388;0.048;2022-12-07T02:00:00;4.50;99.90
63283;DHT22;49407;51.388;0.048;2022-12-07T02:02:51;4.40;99.90
63283;DHT22;49407;51.388;0.048;2022-12-07T02:05:20;4.30;99.90
63283;DHT22;49407;51.388;0.048;2022-12-07T02:07:54;4.30;99.90
63283;DHT22;49407;51.388;0.048;2022-12-07T02:10:28;4.20;99.90
63283;DHT22;49407;51.388;0.048;2022-12-07T02:13:12;4.00;99.90
63283;DHT22;49407;51.388;0.048;2022-12-07T02:30:43;3.90;99.90
63283;DHT22;49407;51.388;0.048;2022-12-07T02:33:33;3.80;99.90
63283;DHT22;49407;51.388;0.048;2022-12-07T02:36:10;3.80;99.90
63283;DHT22;49407;51.388;0.048;2022-12-07T02:38:47;3.80;99.90
63283;DHT22;49407;51.388;0.048;2022-12-07T02:41:37;3.80;99.90
63283;DHT22;49407;51.388;0.048;2022-12-07T02:44:10;4.00;99.90
63283;DHT22;49407;51.388;0.048;2022-12-07T02:46:46;3.90;99.90
63283;DHT22;49407;51.388;0.048;2022-12-07T02:49:16;3.90;99.90
63283;DHT22;49407;51.388;0.048;2022-12-07T02:51:45;3.90;99.90
63283;DHT22;49407;51.388;0.048;2022-12-07T02:54:15;3.90;99.90
63283;DHT22;49407;51.388;0.048;2022-12-07T03:00:07;4.00;99.90
63283;DHT22;49407;51.388;0.048;2022-12-07T03:02:59;4.10;99.90
63283;DHT22;49407;51.388;0.048;2022-12-07T03:11:20;4.30;99.90
63283;DHT22;49407;51.388;0.048;2022-12-07T03:13:54;4.30;99.90
63283;DHT22;49407;51.388;0.048;2022-12-07T03:16:27;4.30;99.90
63283;DHT22;49407;51.388;0.048;2022-12-07T03:22:13;4.30;99.90
63283;DHT22;49407;51.388;0.048;2022-12-07T03:24:50;4.30;99.90
63283;DHT22;49407;51.388;0.048;2022-12-07T03:27:23;4.40;99.90
63283;DHT22;49407;51.388;0.048;2022-12-07T03:30:14;4.40;99.90
63283;DHT22;49407;51.388;0.048;2022-12-07T03:32:55;4.50;99.90
63283;DHT22;49407;51.388;0.048;2022-12-07T03:38:45;4.60;99.90
63283;DHT22;49407;51.388;0.048;2022-12-07T03:41:23;4.60;99.90
63283;DHT22;49407;51.388;0.048;2022-12-07T03:43:53;4.60;99.90
63283;DHT22;49407;51.388;0.048;2022-12-07T03:49:24;4.60;99.90
63283;DHT22;49407;51.388;0.048;2022-12-07T03:52:42;4.60;99.90
63283;DHT22;49407;51.388;0.048;2022-12-07T03:54:55;4.60;99.90
63283;DHT22;49407;51.388;0.048;2022-12-07T03:57:28;4.60;99.90
63283;DHT22;49407;51.388;0.048;2022-12-07T03:59:57;4.60;99.90
63283;DHT22;49407;51.388;0.048;2022-12-07T04:02:27;4.70;99.90
63283;DHT22;49407;51.388;0.048;2022-12-07T04:04:55;4.60;99.90
63283;DHT22;49407;51.388;0.048;2022-12-07T04:07:25;4.60;99.90
63283;DHT22;49407;51.388;0.048;2022-12-07T04:09:52;4.60;99.90
63283;DHT22;49407;51.388;0.048;2022-12-07T04:12:22;4.70;99.90
63283;DHT22;49407;51.388;0.048;2022-12-07T04:14:49;4.70;99.90
63283;DHT22;49407;51.388;0.048;2022-12-07T04:17:18;4.80;99.90
63283;DHT22;49407;51.388;0.048;2022-12-07T04:19:45;4.70;99.90
63283;DHT22;49407;51.388;0.048;2022-12-07T04:22:12;4.70;99.90
63283;DHT22;49407;51.388;0.048;2022-12-07T04:24:39;4.70;99.90
63283;DHT22;49407;51.388;0.048;2022-12-07T04:27:08;4.70;99.90
63283;DHT22;49407;51.388;0.048;2022-12-07T04:29:34;4.70;99.90
63283;DHT22;49407;51.388;0.048;2022-12-07T04:32:02;4.70;99.90
63283;DHT22;49407;51.388;0.048;2022-12-07T04:34:29;4.70;99.90
63283;DHT22;49407;51.388;0.048;2022-12-07T04:40:00;4.70;99.90
63283;DHT22;49407;51.388;0.048;2022-12-07T04:42:28;4.60;99.90
63283;DHT22;49407;51.388;0.048;2022-12-07T04:44:55;4.70;99.90
63283;DHT22;49407;51.388;0.048;2022-12-07T04:47:24;4.70;99.90
63283;DHT22;49407;51.388;0.048;2022-12-07T04:49:50;4.70;99.90
63283;DHT22;49407;51.388;0.048;2022-12-07T04:52:17;4.60;99.90
63283;DHT22;49407;51.388;0.048;2022-12-07T04:54:44;4.70;99.90
63283;DHT22;49407;51.388;0.048;2022-12-07T04:57:13;4.70;99.90
63283;DHT22;49407;51.388;0.048;2022-12-07T04:59:40;4.70;99.90
63283;DHT22;49407;51.388;0.048;2022-12-07T05:02:11;4.70;99.90
63283;DHT22;49407;51.388;0.048;2022-12-07T05:04:38;4.70;99.90
63283;DHT22;49407;51.388;0.048;2022-12-07T05:07:06;4.70;99.90
63283;DHT22;49407;51.388;0.048;2022-12-07T05:09:33;4.70;99.90
63283;DHT22;49407;51.388;0.048;2022-12-07T05:12:00;4.70;99.90
63283;DHT22;49407;51.388;0.048;2022-12-07T05:14:27;4.60;99.90
63283;DHT22;49407;51.388;0.048;2022-12-07T05:16:54;4.60;99.90
63283;DHT22;49407;51.388;0.048;2022-12-07T05:19:20;4.70;99.90
63283;DHT22;49407;51.388;0.048;2022-12-07T05:21:48;4.70;99.90
63283;DHT22;49407;51.388;0.048;2022-12-07T05:24:16;4.70;99.90
63283;DHT22;49407;51.388;0.048;2022-12-07T05:26:44;4.70;99.90
63283;DHT22;49407;51.388;0.048;2022-12-07T05:29:15;4.60;99.90
63283;DHT22;49407;51.388;0.048;2022-12-07T05:31:43;4.60;99.90
63283;DHT22;49407;51.388;0.048;2022-12-07T05:34:11;4.70;99.90
63283;DHT22;49407;51.388;0.048;2022-12-07T05:36:39;4.60;99.90
63283;DHT22;49407;51.388;0.048;2022-12-07T05:39:06;4.70;99.90
63283;DHT22;49407;51.388;0.048;2022-12-07T05:41:33;4.70;99.90
63283;DHT22;49407;51.388;0.048;2022-12-07T05:44:19;4.70;99.90
63283;DHT22;49407;51.388;0.048;2022-12-07T05:46:46;4.70;99.90
63283;DHT22;49407;51.388;0.048;2022-12-07T05:49:13;4.80;99.90
63283;DHT22;49407;51.388;0.048;2022-12-07T05:51:40;4.80;99.90
63283;DHT22;49407;51.388;0.048;2022-12-07T05:54:07;4.80;99.90
63283;DHT22;49407;51.388;0.048;2022-12-07T05:56:34;4.80;99.90
63283;DHT22;49407;51.388;0.048;2022-12-07T05:59:01;4.70;99.90
63283;DHT22;49407;51.388;0.048;2022-12-07T06:01:46;4.80;99.90
63283;DHT22;49407;51.388;0.048;2022-12-07T06:04:13;4.80;99.90
63283;DHT22;49407;51.388;0.048;2022-12-07T06:06:42;4.90;99.90
63283;DHT22;49407;51.388;0.048;2022-12-07T06:09:09;4.90;99.90
63283;DHT22;49407;51.388;0.048;2022-12-07T06:11:36;4.80;99.90
63283;DHT22;49407;51.388;0.048;2022-12-07T06:14:22;4.80;99.90
63283;DHT22;49407;51.388;0.048;2022-12-07T06:16:54;4.80;99.90
63283;DHT22;49407;51.388;0.048;2022-12-07T06:19:21;4.80;99.90
63283;DHT22;49407;51.388;0.048;2022-12-07T06:21:48;4.70;99.90
63283;DHT22;49407;51.388;0.048;2022-12-07T06:24:15;4.70;99.90
63283;DHT22;49407;51.388;0.048;2022-12-07T06:26:43;4.80;99.90
63283;DHT22;49407;51.388;0.048;2022-12-07T06:29:11;4.70;99.90
63283;DHT22;49407;51.388;0.048;2022-12-07T06:31:38;4.70;99.90
63283;DHT22;49407;51.388;0.048;2022-12-07T06:34:09;4.70;99.90
63283;DHT22;49407;51.388;0.048;2022-12-07T06:36:38;4.70;99.90
63283;DHT22;49407;51.388;0.048;2022-12-07T06:39:06;4.70;99.90
63283;DHT22;49407;51.388;0.048;2022-12-07T06:41:38;4.70;99.90
63283;DHT22;49407;51.388;0.048;2022-12-07T06:44:06;4.70;99.90
63283;DHT22;49407;51.388;0.048;2022-12-07T06:46:33;4.70;99.90
63283;DHT22;49407;51.388;0.048;2022-12-07T06:49:03;4.70;99.90
63283;DHT22;49407;51.388;0.048;2022-12-07T06:51:31;4.60;99.90
63283;DHT22;49407;51.388;0.048;2022-12-07T06:53:58;4.70;99.90
63283;DHT22;49407;51.388;0.048;2022-12-07T06:56:25;4.70;99.90
63283;DHT22;49407;51.388;0.048;2022-12-07T06:58:52;4.70;99.90
63283;DHT22;49407;51.388;0.048;2022-12-07T07:01:19;4.70;99.90
63283;DHT22;49407;51.388;0.048;2022-12-07T07:03:46;4.70;99.90
63283;DHT22;49407;51.388;0.048;2022-12-07T07:06:14;4.70;99.90
63283;DHT22;49407;51.388;0.048;2022-12-07T07:08:41;4.60;99.90
63283;DHT22;49407;51.388;0.048;2022-12-07T07:11:09;4.70;99.90
63283;DHT22;49407;51.388;0.048;2022-12-07T07:13:36;4.70;99.90
63283;DHT22;49407;51.388;0.048;2022-12-07T07:16:03;4.70;99.90
63283;DHT22;49407;51.388;0.048;2022-12-07T07:18:32;4.70;99.90
63283;DHT22;49407;51.388;0.048;2022-12-07T07:21:00;4.70;99.90
63283;DHT22;49407;51.388;0.048;2022-12-07T07:23:27;4.70;99.90
63283;DHT22;49407;51.388;0.048;2022-12-07T07:25:54;4.70;99.90
63283;DHT22;49407;51.388;0.048;2022-12-07T07:28:21;4.70;99.90
63283;DHT22;49407;51.388;0.048;2022-12-07T07:30:48;4.70;99.90
63283;DHT22;49407;51.388;0.048;2022-12-07T07:33:16;4.70;99.90
63283;DHT22;49407;51.388;0.048;2022-12-07T07:35:43;4.70;99.90
63283;DHT22;49407;51.388;0.048;2022-12-07T07:38:11;4.70;99.90
63283;DHT22;49407;51.388;0.048;2022-12-07T07:40:37;4.70;99.90
63283;DHT22;49407;51.388;0.048;2022-12-07T07:43:05;4.80;99.90
63283;DHT22;49407;51.388;0.048;2022-12-07T07:45:31;4.80;99.90
63283;DHT22;49407;51.388;0.048;2022-12-07T07:48:03;4.70;99.90
63283;DHT22;49407;51.388;0.048;2022-12-07T07:50:30;4.70;99.90
63283;DHT22;49407;51.388;0.048;2022-12-07T07:52:57;4.70;99.90
63283;DHT22;49407;51.388;0.048;2022-12-07T07:55:24;4.70;99.90
63283;DHT22;49407;51.388;0.048;2022-12-07T07:57:51;4.70;99.90
63283;DHT22;49407;51.388;0.048;2022-12-07T08:00:21;4.70;99.90
63283;DHT22;49407;51.388;0.048;2022-12-07T08:02:48;4.60;99.90
63283;DHT22;49407;51.388;0.048;2022-12-07T08:05:15;4.70;99.90
63283;DHT22;49407;51.388;0.048;2022-12-07T08:07:45;4.60;99.90
63283;DHT22;49407;51.388;0.048;2022-12-07T08:10:13;4.70;99.90
63283;DHT22;49407;51.388;0.048;2022-12-07T08:12:41;4.70;99.90
63283;DHT22;49407;51.388;0.048;2022-12-07T08:15:29;4.70;99.90
63283;DHT22;49407;51.388;0.048;2022-12-07T08:17:59;4.70;99.90
63283;DHT22;49407;51.388;0.048;2022-12-07T08:20:26;4.70;99.90
63283;DHT22;49407;51.388;0.048;2022-12-07T08:22:53;4.80;99.90
63283;DHT22;49407;51.388;0.048;2022-12-07T08:25:20;4.80;99.90
63283;DHT22;49407;51.388;0.048;2022-12-07T08:27:49;4.80;99.90
63283;DHT22;49407;51.388;0.048;2022-12-07T08:30:16;4.80;99.90
63283;DHT22;49407;51.388;0.048;2022-12-07T08:32:44;4.80;99.90
63283;DHT22;49407;51.388;0.048;2022-12-07T08:35:12;4.90;99.90
63283;DHT22;49407;51.388;0.048;2022-12-07T08:37:44;4.90;99.90
63283;DHT22;49407;51.388;0.048;2022-12-07T08:40:12;5.00;99.90
63283;DHT22;49407;51.388;0.048;2022-12-07T08:42:43;4.90;99.90
63283;DHT22;49407;51.388;0.048;2022-12-07T08:45:13;4.90;99.90
63283;DHT22;49407;51.388;0.048;2022-12-07T08:47:43;4.90;99.90
63283;DHT22;49407;51.388;0.048;2022-12-07T08:50:12;4.90;99.90
63283;DHT22;49407;51.388;0.048;2022-12-07T08:52:40;4.90;99.90
63283;DHT22;49407;51.388;0.048;2022-12-07T08:55:10;5.00;99.90
63283;DHT22;49407;51.388;0.048;2022-12-07T08:57:38;4.90;99.90
63283;DHT22;49407;51.388;0.048;2022-12-07T09:00:06;5.00;99.90
63283;DHT22;49407;51.388;0.048;2022-12-07T09:02:34;5.00;99.90
63283;DHT22;49407;51.388;0.048;2022-12-07T09:05:01;5.00;99.90
63283;DHT22;49407;51.388;0.048;2022-12-07T09:07:30;5.10;99.90
63283;DHT22;49407;51.388;0.048;2022-12-07T09:09:58;5.00;99.90
63283;DHT22;49407;51.388;0.048;2022-12-07T09:12:25;5.00;99.90
63283;DHT22;49407;51.388;0.048;2022-12-07T09:14:52;5.00;99.90
63283;DHT22;49407;51.388;0.048;2022-12-07T09:17:20;5.00;99.90
63283;DHT22;49407;51.388;0.048;2022-12-07T09:19:47;5.00;99.90
63283;DHT22;49407;51.388;0.048;2022-12-07T09:22:14;5.00;99.90
63283;DHT22;49407;51.388;0.048;2022-12-07T09:24:41;5.00;99.90
63283;DHT22;49407;51.388;0.048;2022-12-07T09:27:08;4.90;99.90
63283;DHT22;49407;51.388;0.048;2022-12-07T09:29:35;4.90;99.90
63283;DHT22;49407;51.388;0.048;2022-12-07T09:32:02;5.00;99.90
63283;DHT22;49407;51.388;0.048;2022-12-07T09:34:37;4.90;99.90
63283;DHT22;49407;51.388;0.048;2022-12-07T09:37:23;4.90;99.90
63283;DHT22;49407;51.388;0.048;2022-12-07T09:39:50;5.00;99.90
63283;DHT22;49407;51.388;0.048;2022-12-07T09:42:34;4.90;99.90
63283;DHT22;49407;51.388;0.048;2022-12-07T09:45:04;4.90;99.90
63283;DHT22;49407;51.388;0.048;2022-12-07T09:47:32;4.90;99.90
63283;DHT22;49407;51.388;0.048;2022-12-07T09:50:05;4.90;99.90
63283;DHT22;49407;51.388;0.048;2022-12-07T09:52:32;4.90;99.90
63283;DHT22;49407;51.388;0.048;2022-12-07T09:55:10;4.90;99.90
63283;DHT22;49407;51.388;0.048;2022-12-07T09:57:39;5.00;99.90
63283;DHT22;49407;51.388;0.048;2022-12-07T10:00:15;5.00;99.90
63283;DHT22;49407;51.388;0.048;2022-12-07T10:03:01;5.10;99.90
63283;DHT22;49407;51.388;0.048;2022-12-07T10:05:40;5.20;99.90
63283;DHT22;49407;51.388;0.048;2022-12-07T10:08:11;5.20;99.90
63283;DHT22;49407;51.388;0.048;2022-12-07T10:10:39;5.30;99.90
63283;DHT22;49407;51.388;0.048;2022-12-07T10:13:15;5.30;99.90
63283;DHT22;49407;51.388;0.048;2022-12-07T10:18:33;5.40;99.90
63283;DHT22;49407;51.388;0.048;2022-12-07T10:21:10;5.50;99.90
63283;DHT22;49407;51.388;0.048;2022-12-07T10:23:40;5.40;99.90
63283;DHT22;49407;51.388;0.048;2022-12-07T10:26:33;5.40;99.90
63283;DHT22;49407;51.388;0.048;2022-12-07T10:31:57;5.50;99.90
63283;DHT22;49407;51.388;0.048;2022-12-07T10:34:29;5.70;99.90
63283;DHT22;49407;51.388;0.048;2022-12-07T10:37:14;5.90;99.90
63283;DHT22;49407;51.388;0.048;2022-12-07T10:42:19;6.20;99.90
63283;DHT22;49407;51.388;0.048;2022-12-07T10:44:48;6.40;99.90
63283;DHT22;49407;51.388;0.048;2022-12-07T10:50:12;6.50;99.90
63283;DHT22;49407;51.388;0.048;2022-12-07T10:52:58;6.60;99.90
63283;DHT22;49407;51.388;0.048;2022-12-07T11:18:24;6.40;99.90
63283;DHT22;49407;51.388;0.048;2022-12-07T11:36:52;6.50;99.90
63283;DHT22;49407;51.388;0.048;2022-12-07T11:39:26;6.60;99.90
63283;DHT22;49407;51.388;0.048;2022-12-07T11:42:10;6.70;99.90
63283;DHT22;49407;51.388;0.048;2022-12-07T11:45:00;6.70;99.90
63283;DHT22;49407;51.388;0.048;2022-12-07T11:47:48;6.70;99.90
63283;DHT22;49407;51.388;0.048;2022-12-07T11:53:21;6.70;99.90
63283;DHT22;49407;51.388;0.048;2022-12-07T12:06:40;6.40;99.90
63283;DHT22;49407;51.388;0.048;2022-12-07T12:09:17;6.40;99.90
63283;DHT22;49407;51.388;0.048;2022-12-07T12:23:17;6.30;99.90
63283;DHT22;49407;51.388;0.048;2022-12-07T12:33:51;6.50;99.90
63283;DHT22;49407;51.388;0.048;2022-12-07T12:36:54;6.50;99.90
63283;DHT22;49407;51.388;0.048;2022-12-07T12:39:18;6.50;99.90
63283;DHT22;49407;51.388;0.048;2022-12-07T12:46:50;6.20;99.90
63283;DHT22;49407;51.388;0.048;2022-12-07T12:51:48;6.00;99.90
63283;DHT22;49407;51.388;0.048;2022-12-07T12:59:30;5.90;99.90
63283;DHT22;49407;51.388;0.048;2022-12-07T13:02:09;5.90;99.90
63283;DHT22;49407;51.388;0.048;2022-12-07T13:23:55;5.30;99.90
63283;DHT22;49407;51.388;0.048;2022-12-07T13:29:19;5.20;99.90
63283;DHT22;49407;51.388;0.048;2022-12-07T13:31:52;5.10;99.90
63283;DHT22;49407;51.388;0.048;2022-12-07T13:34:37;5.00;99.90
63283;DHT22;49407;51.388;0.048;2022-12-07T13:37:14;5.00;99.90
63283;DHT22;49407;51.388;0.048;2022-12-07T13:39:49;5.10;99.90
63283;DHT22;49407;51.388;0.048;2022-12-07T13:42:33;5.20;99.90
63283;DHT22;49407;51.388;0.048;2022-12-07T13:45:16;5.20;99.90
63283;DHT22;49407;51.388;0.048;2022-12-07T13:47:54;5.30;99.90
63283;DHT22;49407;51.388;0.048;2022-12-07T13:50:25;5.50;99.90
63283;DHT22;49407;51.388;0.048;2022-12-07T13:52:56;5.70;99.90
63283;DHT22;49407;51.388;0.048;2022-12-07T13:55:23;5.80;99.90
63283;DHT22;49407;51.388;0.048;2022-12-07T13:57:52;6.10;99.90
63283;DHT22;49407;51.388;0.048;2022-12-07T14:00:25;6.10;99.90
63283;DHT22;49407;51.388;0.048;2022-12-07T14:05:41;6.30;99.90
63283;DHT22;49407;51.388;0.048;2022-12-07T14:13:37;6.30;99.90
63283;DHT22;49407;51.388;0.048;2022-12-07T14:19:02;6.30;99.90
63283;DHT22;49407;51.388;0.048;2022-12-07T14:21:34;6.30;99.90
63283;DHT22;49407;51.388;0.048;2022-12-07T14:24:30;6.40;99.90
63283;DHT22;49407;51.388;0.048;2022-12-07T14:27:16;6.50;99.90
63283;DHT22;49407;51.388;0.048;2022-12-07T14:29:44;6.50;99.90
63283;DHT22;49407;51.388;0.048;2022-12-07T14:32:24;6.50;99.90
63283;DHT22;49407;51.388;0.048;2022-12-07T14:34:59;6.50;99.90
63283;DHT22;49407;51.388;0.048;2022-12-07T14:37:28;6.50;99.90
63283;DHT22;49407;51.388;0.048;2022-12-07T14:39:56;6.50;99.90
63283;DHT22;49407;51.388;0.048;2022-12-07T14:42:26;6.50;99.90
63283;DHT22;49407;51.388;0.048;2022-12-07T14:44:54;6.50;99.90
63283;DHT22;49407;51.388;0.048;2022-12-07T14:47:22;6.50;99.90
63283;DHT22;49407;51.388;0.048;2022-12-07T14:50:12;6.50;99.90
63283;DHT22;49407;51.388;0.048;2022-12-07T14:52:40;6.60;99.90
63283;DHT22;49407;51.388;0.048;2022-12-07T14:55:30;6.50;99.90
63283;DHT22;49407;51.388;0.048;2022-12-07T14:57:59;6.40;99.90
63283;DHT22;49407;51.388;0.048;2022-12-07T15:00:28;6.40;99.90
63283;DHT22;49407;51.388;0.048;2022-12-07T15:02:56;6.30;99.90
63283;DHT22;49407;51.388;0.048;2022-12-07T15:05:23;6.30;99.90
63283;DHT22;49407;51.388;0.048;2022-12-07T15:07:51;6.30;99.90
63283;DHT22;49407;51.388;0.048;2022-12-07T15:10:27;6.20;99.90
63283;DHT22;49407;51.388;0.048;2022-12-07T15:12:57;6.20;99.90
63283;DHT22;49407;51.388;0.048;2022-12-07T15:15:43;6.10;99.90
63283;DHT22;49407;51.388;0.048;2022-12-07T15:18:11;6.00;99.90
63283;DHT22;49407;51.388;0.048;2022-12-07T15:20:38;5.80;99.90
63283;DHT22;49407;51.388;0.048;2022-12-07T15:23:05;5.70;99.90
63283;DHT22;49407;51.388;0.048;2022-12-07T15:25:33;5.50;99.90
63283;DHT22;49407;51.388;0.048;2022-12-07T15:28:01;5.40;99.90
63283;DHT22;49407;51.388;0.048;2022-12-07T15:30:29;5.30;99.90
63283;DHT22;49407;51.388;0.048;2022-12-07T15:32:55;5.10;99.90
63283;DHT22;49407;51.388;0.048;2022-12-07T15:35:22;4.90;99.90
63283;DHT22;49407;51.388;0.048;2022-12-07T15:37:51;4.80;99.90
63283;DHT22;49407;51.388;0.048;2022-12-07T15:40:18;4.70;99.90
63283;DHT22;49407;51.388;0.048;2022-12-07T15:42:45;4.60;99.90
63283;DHT22;49407;51.388;0.048;2022-12-07T15:45:12;4.50;99.90
63283;DHT22;49407;51.388;0.048;2022-12-07T15:47:42;4.40;99.90
63283;DHT22;49407;51.388;0.048;2022-12-07T15:50:29;4.40;99.90
63283;DHT22;49407;51.388;0.048;2022-12-07T15:52:56;4.40;99.90
63283;DHT22;49407;51.388;0.048;2022-12-07T15:55:23;4.40;99.90
63283;DHT22;49407;51.388;0.048;2022-12-07T15:57:50;4.30;99.90
63283;DHT22;49407;51.388;0.048;2022-12-07T16:00:17;4.40;99.90
63283;DHT22;49407;51.388;0.048;2022-12-07T16:02:45;4.50;99.90
63283;DHT22;49407;51.388;0.048;2022-12-07T16:05:12;4.50;99.90
63283;DHT22;49407;51.388;0.048;2022-12-07T16:07:42;4.50;99.90
63283;DHT22;49407;51.388;0.048;2022-12-07T16:10:10;4.50;99.90
63283;DHT22;49407;51.388;0.048;2022-12-07T16:12:37;4.50;99.90
63283;DHT22;49407;51.388;0.048;2022-12-07T16:15:04;4.40;99.90
63283;DHT22;49407;51.388;0.048;2022-12-07T16:17:32;4.30;99.90
63283;DHT22;49407;51.388;0.048;2022-12-07T16:19:59;4.40;99.90
63283;DHT22;49407;51.388;0.048;2022-12-07T16:22:26;4.50;99.90
63283;DHT22;49407;51.388;0.048;2022-12-07T16:24:53;4.50;99.90
63283;DHT22;49407;51.388;0.048;2022-12-07T16:27:22;4.50;99.90
63283;DHT22;49407;51.388;0.048;2022-12-07T16:29:49;4.50;99.90
63283;DHT22;49407;51.388;0.048;2022-12-07T16:32:16;4.50;99.90
63283;DHT22;49407;51.388;0.048;2022-12-07T16:34:43;4.60;99.90
63283;DHT22;49407;51.388;0.048;2022-12-07T16:37:10;4.60;99.90
63283;DHT22;49407;51.388;0.048;2022-12-07T16:39:37;4.70;99.90
63283;DHT22;49407;51.388;0.048;2022-12-07T16:42:04;4.70;99.90
63283;DHT22;49407;51.388;0.048;2022-12-07T16:44:31;4.70;99.90
63283;DHT22;49407;51.388;0.048;2022-12-07T16:46:58;4.70;99.90
63283;DHT22;49407;51.388;0.048;2022-12-07T16:49:27;4.60;99.90
63283;DHT22;49407;51.388;0.048;2022-12-07T16:51:56;4.50;99.90
63283;DHT22;49407;51.388;0.048;2022-12-07T16:54:44;4.30;99.90
63283;DHT22;49407;51.388;0.048;2022-12-07T16:57:13;4.10;99.90
63283;DHT22;49407;51.388;0.048;2022-12-07T16:59:47;4.10;99.90
63283;DHT22;49407;51.388;0.048;2022-12-07T17:02:14;3.90;99.90
63283;DHT22;49407;51.388;0.048;2022-12-07T17:04:41;3.80;99.90
63283;DHT22;49407;51.388;0.048;2022-12-07T17:07:09;3.60;99.90
63283;DHT22;49407;51.388;0.048;2022-12-07T17:09:36;3.50;99.90
63283;DHT22;49407;51.388;0.048;2022-12-07T17:12:03;3.40;99.90
63283;DHT22;49407;51.388;0.048;2022-12-07T17:14:32;3.40;99.90
63283;DHT22;49407;51.388;0.048;2022-12-07T17:17:18;3.30;99.90
63283;DHT22;49407;51.388;0.048;2022-12-07T17:19:45;3.20;99.90
63283;DHT22;49407;51.388;0.048;2022-12-07T17:22:13;3.10;99.90
63283;DHT22;49407;51.388;0.048;2022-12-07T17:24:41;3.00;99.90
63283;DHT22;49407;51.388;0.048;2022-12-07T17:27:26;3.00;99.90
63283;DHT22;49407;51.388;0.048;2022-12-07T17:29:54;2.90;99.90
63283;DHT22;49407;51.388;0.048;2022-12-07T17:32:21;2.80;99.90
63283;DHT22;49407;51.388;0.048;2022-12-07T17:34:49;2.70;99.90
63283;DHT22;49407;51.388;0.048;2022-12-07T17:37:16;2.60;99.90
63283;DHT22;49407;51.388;0.048;2022-12-07T17:39:43;2.60;99.90
63283;DHT22;49407;51.388;0.048;2022-12-07T17:42:10;2.50;99.90
63283;DHT22;49407;51.388;0.048;2022-12-07T17:44:55;2.50;99.90
63283;DHT22;49407;51.388;0.048;2022-12-07T17:47:22;2.50;99.90
63283;DHT22;49407;51.388;0.048;2022-12-07T17:49:49;2.60;99.90
63283;DHT22;49407;51.388;0.048;2022-12-07T17:52:16;2.70;99.90
63283;DHT22;49407;51.388;0.048;2022-12-07T17:55:02;2.70;99.90
63283;DHT22;49407;51.388;0.048;2022-12-07T17:57:29;2.70;99.90
63283;DHT22;49407;51.388;0.048;2022-12-07T17:59:56;2.60;99.90
63283;DHT22;49407;51.388;0.048;2022-12-07T18:02:24;2.60;99.90
63283;DHT22;49407;51.388;0.048;2022-12-07T18:04:50;2.50;99.90
63283;DHT22;49407;51.388;0.048;2022-12-07T18:07:21;2.40;99.90
63283;DHT22;49407;51.388;0.048;2022-12-07T18:09:49;2.40;99.90
63283;DHT22;49407;51.388;0.048;2022-12-07T18:12:16;2.30;99.90
63283;DHT22;49407;51.388;0.048;2022-12-07T18:14:42;2.20;99.90
63283;DHT22;49407;51.388;0.048;2022-12-07T18:17:10;2.10;99.90
63283;DHT22;49407;51.388;0.048;2022-12-07T18:19:37;2.00;99.90
63283;DHT22;49407;51.388;0.048;2022-12-07T18:22:04;1.90;99.90
63283;DHT22;49407;51.388;0.048;2022-12-07T18:24:31;1.90;99.90
63283;DHT22;49407;51.388;0.048;2022-12-07T18:27:04;1.80;99.90
63283;DHT22;49407;51.388;0.048;2022-12-07T18:29:32;1.70;99.90
63283;DHT22;49407;51.388;0.048;2022-12-07T18:31:59;1.70;99.90
63283;DHT22;49407;51.388;0.048;2022-12-07T18:34:27;1.70;99.90
63283;DHT22;49407;51.388;0.048;2022-12-07T18:36:59;1.60;99.90
63283;DHT22;49407;51.388;0.048;2022-12-07T18:39:26;1.60;99.90
63283;DHT22;49407;51.388;0.048;2022-12-07T18:41:59;1.60;99.90
63283;DHT22;49407;51.388;0.048;2022-12-07T18:44:26;1.60;99.90
63283;DHT22;49407;51.388;0.048;2022-12-07T18:46:53;1.60;99.90
63283;DHT22;49407;51.388;0.048;2022-12-07T18:49:20;1.60;99.90
63283;DHT22;49407;51.388;0.048;2022-12-07T18:51:47;1.60;99.90
63283;DHT22;49407;51.388;0.048;2022-12-07T18:54:14;1.60;99.90
63283;DHT22;49407;51.388;0.048;2022-12-07T18:56:41;1.50;99.90